createdAt,value
2022-08-20T06:14:02.110Z,100.00
2022-08-20T06:24:02.294Z,100.00
2022-08-20T06:34:02.131Z,100.00
2022-08-20T06:44:02.251Z,100.00
2022-08-20T06:54:02.212Z,100.00
2022-08-20T07:04:02.118Z,100.00
2022-08-20T07:14:02.583Z,100.00
2022-08-20T07:24:02.252Z,100.00
2022-08-20T07:34:02.203Z,100.00
2022-08-20T07:44:02.317Z,100.00
2022-08-20T07:54:02.324Z,100.00
2022-08-20T08:04:02.341Z,100.00
2022-08-20T08:14:02.164Z,100.00
2022-08-20T08:24:02.206Z,100.00
2022-08-20T08:34:02.465Z,100.00
2022-08-20T08:44:02.558Z,100.00
2022-08-20T08:54:06.676Z,100.00
2022-08-20T09:04:02.553Z,97.63
2022-08-20T09:14:02.786Z,88.74
2022-08-20T09:24:02.694Z,89.58
2022-08-20T09:34:02.595Z,92.53
2022-08-20T09:44:02.722Z,91.92
2022-08-20T09:54:02.730Z,90.04
2022-08-20T10:04:02.746Z,88.40
2022-08-20T10:14:02.584Z,85.99
2022-08-20T10:24:02.761Z,82.51
2022-08-20T10:34:02.748Z,76.89
2022-08-20T10:44:02.642Z,79.71
2022-08-20T10:54:02.722Z,76.86
2022-08-20T11:04:02.717Z,75.91
2022-08-20T11:14:02.825Z,73.76
2022-08-20T11:24:03.185Z,73.50
2022-08-20T11:34:02.646Z,91.99
2022-08-20T11:44:20.949Z,100.00
2022-08-20T11:54:02.686Z,100.00
2022-08-20T12:04:02.664Z,100.00
2022-08-20T12:14:02.717Z,100.00
2022-08-20T12:24:02.739Z,100.00
2022-08-20T12:34:02.790Z,100.00
2022-08-20T12:44:02.708Z,100.00
2022-08-20T12:54:02.734Z,100.00
2022-08-20T13:04:02.723Z,100.00
2022-08-20T13:14:02.859Z,100.00
2022-08-20T13:24:02.898Z,100.00
2022-08-20T13:34:03.084Z,100.00
2022-08-20T13:44:03.041Z,100.00
2022-08-20T13:54:03.398Z,92.18
2022-08-20T14:04:03.453Z,91.68
2022-08-20T14:14:03.564Z,86.69
2022-08-20T14:24:03.753Z,82.71
2022-08-20T14:34:03.889Z,76.16
2022-08-20T14:44:05.295Z,76.31
2022-08-20T14:54:03.929Z,71.24
2022-08-20T15:04:03.984Z,70.90
2022-08-20T15:14:04.070Z,69.89
2022-08-20T15:24:03.876Z,69.23
2022-08-20T15:34:03.856Z,68.47
2022-08-20T15:44:03.873Z,69.51
2022-08-20T15:54:03.941Z,64.57
2022-08-20T16:04:03.859Z,63.47
2022-08-20T16:14:03.966Z,58.48
2022-08-20T16:24:04.023Z,71.69
2022-08-20T16:34:03.856Z,73.72
2022-08-20T16:44:03.838Z,73.45
2022-08-20T16:54:03.980Z,72.61
2022-08-20T17:04:03.946Z,72.91
2022-08-20T17:14:03.827Z,73.18
2022-08-20T17:24:03.954Z,72.58
2022-08-20T17:34:03.962Z,69.60
2022-08-20T17:44:04.015Z,71.26
2022-08-20T17:54:03.840Z,72.98
2022-08-20T18:04:03.831Z,76.57
2022-08-20T18:14:04.157Z,81.13
2022-08-20T18:24:04.137Z,85.73
2022-08-20T18:34:04.298Z,89.88
2022-08-20T18:44:04.350Z,89.33
2022-08-20T18:54:04.680Z,79.46
2022-08-20T19:04:04.678Z,71.51
2022-08-20T19:14:04.615Z,70.69
